Cape Cod — WBK3243 — position and weather

sailwx.info

Track history (hours):
 
Tides and Currents Weather Stations Pressure Air Temp Water Temp Dewpoint Dewpoint Depression Visibility Wind Speed Wind Dir Waves Ship Positions

Cape Cod

Owner: MORAN TOWING CORPORATION, New Canaan, CT. More information available from US FCC via Universal Licensing System and Coast Guard Vessel Documentation Center.

Last reported at 2016-Sep-25 15:33 UTC. Time now 2016-Sep-25 15:42 UTC.
Position N 39°53' W 075°11'.

Length 33 m; draft 4.8 m.

Type: Tug. MMSI: 366939770.

Date/timePositionNaut miles runAvg speedWind from/ knotsBaromVisibWave heightAir tempDewpointWater temp
2016-Sep-25 15:33N 39°53' W 075°11'6 5.7
2016-Sep-25 14:33N 39°58' W 075°07'3 1.5
2016-Sep-25 12:33N 39°55' W 075°08'2 1.8
2016-Sep-25 11:33N 39°54' W 075°08'2 1.9
2016-Sep-25 10:33N 39°53' W 075°11'0 0.0
2016-Sep-25 09:33N 39°53' W 075°11'0 0.0
2016-Sep-25 07:33N 39°53' W 075°11'7 2.3
2016-Sep-25 04:33N 39°51' W 075°19'20 5.0
2016-Sep-25 00:33N 39°34' W 075°34'7 3.4
2016-Sep-24 22:33N 39°41' W 075°31'1010.3
2016-Sep-24 21:32N 39°49' W 075°23'11 5.3
2016-Sep-24 19:33N 39°53' W 075°11'0 0.0
2016-Sep-24 18:33N 39°53' W 075°11'0 0.0
2016-Sep-24 17:33N 39°53' W 075°11'0 0.0
2016-Sep-24 16:33N 39°53' W 075°11'2 1.2
2016-Sep-24 14:33N 39°54' W 075°08'2 1.0
2016-Sep-24 12:33N 39°56' W 075°08'0 0.0
2016-Sep-24 10:33N 39°56' W 075°08'0 0.0
2016-Sep-24 09:33N 39°56' W 075°08'1 0.1
2016-Sep-24 03:33N 39°56' W 075°08'0 0.2
2016-Sep-24 02:33N 39°56' W 075°08'3 3.2
2016-Sep-24 01:33N 39°53' W 075°11'6 5.9
2016-Sep-24 00:33N 39°51' W 075°18'5210.0
2016-Sep-23 19:17N 38°59' W 075°08'15 8.9
2016-Sep-23 17:33N 39°12' W 075°17'9 9.4
2016-Sep-23 16:33N 39°20' W 075°25'1110.7
2016-Sep-23 15:33N 39°28' W 075°34'2411.0
2016-Sep-23 13:21N 39°50' W 075°22'14 3.6
2016-Sep-23 09:33N 39°58' W 075°07'6 1.9
2016-Sep-23 06:34N 39°53' W 075°11'0 0.0
2016-Sep-23 04:33N 39°53' W 075°11'0 0.0
2016-Sep-23 03:33N 39°53' W 075°11'0 0.0
2016-Sep-23 02:33N 39°53' W 075°11'0 0.0
2016-Sep-23 01:33N 39°53' W 075°11'0 0.0
2016-Sep-23 00:33N 39°53' W 075°11'0 0.0
2016-Sep-22 23:33N 39°53' W 075°11'0 0.0
2016-Sep-22 20:33N 39°53' W 075°11'0 0.0
2016-Sep-22 12:33N 39°53' W 075°11'50 5.9
2016-Sep-22 04:07N 39°03' W 075°10'810.5
2016-Sep-22 03:23N 39°10' W 075°16'3512.2
2016-Sep-22 00:30N 39°43' W 075°30'1011.0
2016-Sep-21 23:33N 39°50' W 075°21'8 8.4
2016-Sep-21 22:33N 39°53' W 075°11'0 0.0
2016-Sep-21 19:33N 39°53' W 075°11'0 0.0
2016-Sep-21 16:33N 39°53' W 075°11'0 0.0
2016-Sep-21 09:33N 39°53' W 075°11'0 0.0
2016-Sep-21 08:33N 39°53' W 075°11'0 0.0
2016-Sep-21 05:33N 39°53' W 075°11'0 0.0
2016-Sep-21 03:33N 39°53' W 075°11'0 0.0
2016-Sep-21 02:33N 39°53' W 075°11'0 0.0
2016-Sep-20 17:33N 39°53' W 075°11'26 8.7
2016-Sep-20 14:33N 39°35' W 075°35'1 0.7
2016-Sep-20 13:33N 39°35' W 075°35'0 0.0
2016-Sep-20 10:33N 39°35' W 075°35'0 0.0
2016-Sep-20 08:33N 39°35' W 075°35'2 1.8
2016-Sep-20 07:33N 39°34' W 075°33'3 3.4
2016-Sep-20 06:33N 39°38' W 075°35'24 6.0
2016-Sep-20 02:33N 39°53' W 075°11'0 0.0
2016-Sep-19 23:33N 39°53' W 075°11'0 0.0
2016-Sep-19 19:33N 39°53' W 075°11'1 0.8
2016-Sep-19 18:33N 39°54' W 075°12'6 2.9
2016-Sep-19 16:33N 39°58' W 075°07'2 0.9
2016-Sep-19 14:33N 39°59' W 075°05'3 2.7
2016-Sep-19 13:33N 39°58' W 075°08'1 0.6
2016-Sep-19 12:33N 39°58' W 075°07'5 5.5
2016-Sep-19 11:33N 39°53' W 075°11'0 0.0
2016-Sep-19 09:33N 39°53' W 075°11'0 0.0
2016-Sep-19 07:33N 39°53' W 075°11'0 0.0
2016-Sep-19 06:33N 39°53' W 075°11'0 0.0
2016-Sep-19 03:33N 39°53' W 075°11'0 0.0
2016-Sep-19 02:33N 39°53' W 075°11'0 0.0
2016-Sep-19 00:33N 39°53' W 075°11'0 0.0
2016-Sep-18 19:33N 39°53' W 075°11'0 0.0
2016-Sep-18 15:33N 39°53' W 075°11'3 3.1
2016-Sep-18 14:33N 39°51' W 075°14'3 0.8
2016-Sep-18 10:33N 39°53' W 075°11'0 0.0
2016-Sep-18 09:33N 39°53' W 075°11'0 0.0
2016-Sep-18 02:33N 39°53' W 075°11'0 0.0
2016-Sep-18 01:33N 39°53' W 075°11'0 0.0
2016-Sep-18 00:33N 39°53' W 075°11'0 0.0
2016-Sep-17 22:33N 39°53' W 075°11'0 0.0
2016-Sep-17 21:33N 39°53' W 075°11'0 0.0
2016-Sep-17 20:33N 39°53' W 075°11'0 0.0
2016-Sep-17 19:16N 39°53' W 075°11'0 0.0
2016-Sep-17 13:33N 39°53' W 075°11'0 0.0
2016-Sep-17 12:33N 39°53' W 075°11'0 0.0
2016-Sep-17 10:33N 39°53' W 075°11'0 0.0
2016-Sep-17 09:33N 39°53' W 075°11'0 0.0
2016-Sep-17 08:33N 39°53' W 075°11'0 0.0
2016-Sep-17 07:34N 39°53' W 075°11'0 0.0
2016-Sep-17 05:33N 39°53' W 075°11'0 0.0
2016-Sep-17 04:33N 39°53' W 075°11'0 0.0
2016-Sep-17 00:33N 39°53' W 075°11'36 5.2
2016-Sep-16 17:33N 39°18' W 075°23'0 0.0
2016-Sep-16 12:34N 39°18' W 075°23'24 8.1
2016-Sep-16 09:33N 39°42' W 075°31'2010.0
2016-Sep-16 07:33N 39°53' W 075°09'1 0.2
2016-Sep-16 03:33N 39°53' W 075°10'2 1.6
2016-Sep-16 02:33N 39°54' W 075°12'7 3.4
2016-Sep-16 00:33N 39°51' W 075°20'0 0.1
2016-Sep-15 22:33N 39°51' W 075°20'0 0.0
2016-Sep-15 21:33N 39°51' W 075°20'0 0.0
2016-Sep-15 20:33N 39°51' W 075°20'6 3.2
2016-Sep-15 18:33N 39°52' W 075°12'  
Track history (hours):
 
Tides and Currents Weather Stations Pressure Air Temp Water Temp Dewpoint Dewpoint Depression Visibility Wind Speed Wind Dir Waves Ship Positions

Cape Cod

Owner: MORAN TOWING CORPORATION, New Canaan, CT. More information available from US FCC via Universal Licensing System and Coast Guard Vessel Documentation Center.

Last reported at 2016-Sep-25 15:33 UTC. Time now 2016-Sep-25 15:42 UTC.
Position N 39°53' W 075°11'.

Length 33 m; draft 4.8 m.

Type: Tug. MMSI: 366939770.

Date/timePositionNaut miles runAvg speedWind from/ knotsBaromVisibWave heightAir tempDewpointWater temp
2016-Sep-25 15:33N 39°53' W 075°11'6 5.7
2016-Sep-25 14:33N 39°58' W 075°07'3 1.5
2016-Sep-25 12:33N 39°55' W 075°08'2 1.8
2016-Sep-25 11:33N 39°54' W 075°08'2 1.9
2016-Sep-25 10:33N 39°53' W 075°11'0 0.0
2016-Sep-25 09:33N 39°53' W 075°11'0 0.0
2016-Sep-25 07:33N 39°53' W 075°11'7 2.3
2016-Sep-25 04:33N 39°51' W 075°19'20 5.0
2016-Sep-25 00:33N 39°34' W 075°34'7 3.4
2016-Sep-24 22:33N 39°41' W 075°31'1010.3
2016-Sep-24 21:32N 39°49' W 075°23'11 5.3
2016-Sep-24 19:33N 39°53' W 075°11'0 0.0
2016-Sep-24 18:33N 39°53' W 075°11'0 0.0
2016-Sep-24 17:33N 39°53' W 075°11'0 0.0
2016-Sep-24 16:33N 39°53' W 075°11'2 1.2
2016-Sep-24 14:33N 39°54' W 075°08'2 1.0
2016-Sep-24 12:33N 39°56' W 075°08'0 0.0
2016-Sep-24 10:33N 39°56' W 075°08'0 0.0
2016-Sep-24 09:33N 39°56' W 075°08'1 0.1
2016-Sep-24 03:33N 39°56' W 075°08'0 0.2
2016-Sep-24 02:33N 39°56' W 075°08'3 3.2
2016-Sep-24 01:33N 39°53' W 075°11'6 5.9
2016-Sep-24 00:33N 39°51' W 075°18'5210.0
2016-Sep-23 19:17N 38°59' W 075°08'15 8.9
2016-Sep-23 17:33N 39°12' W 075°17'9 9.4
2016-Sep-23 16:33N 39°20' W 075°25'1110.7
2016-Sep-23 15:33N 39°28' W 075°34'2411.0
2016-Sep-23 13:21N 39°50' W 075°22'14 3.6
2016-Sep-23 09:33N 39°58' W 075°07'6 1.9
2016-Sep-23 06:34N 39°53' W 075°11'0 0.0
2016-Sep-23 04:33N 39°53' W 075°11'0 0.0
2016-Sep-23 03:33N 39°53' W 075°11'0 0.0
2016-Sep-23 02:33N 39°53' W 075°11'0 0.0
2016-Sep-23 01:33N 39°53' W 075°11'0 0.0
2016-Sep-23 00:33N 39°53' W 075°11'0 0.0
2016-Sep-22 23:33N 39°53' W 075°11'0 0.0
2016-Sep-22 20:33N 39°53' W 075°11'0 0.0
2016-Sep-22 12:33N 39°53' W 075°11'50 5.9
2016-Sep-22 04:07N 39°03' W 075°10'810.5
2016-Sep-22 03:23N 39°10' W 075°16'3512.2
2016-Sep-22 00:30N 39°43' W 075°30'1011.0
2016-Sep-21 23:33N 39°50' W 075°21'8 8.4
2016-Sep-21 22:33N 39°53' W 075°11'0 0.0
2016-Sep-21 19:33N 39°53' W 075°11'0 0.0
2016-Sep-21 16:33N 39°53' W 075°11'0 0.0
2016-Sep-21 09:33N 39°53' W 075°11'0 0.0
2016-Sep-21 08:33N 39°53' W 075°11'0 0.0
2016-Sep-21 05:33N 39°53' W 075°11'0 0.0
2016-Sep-21 03:33N 39°53' W 075°11'0 0.0
2016-Sep-21 02:33N 39°53' W 075°11'0 0.0
2016-Sep-20 17:33N 39°53' W 075°11'26 8.7
2016-Sep-20 14:33N 39°35' W 075°35'1 0.7
2016-Sep-20 13:33N 39°35' W 075°35'0 0.0
2016-Sep-20 10:33N 39°35' W 075°35'0 0.0
2016-Sep-20 08:33N 39°35' W 075°35'2 1.8
2016-Sep-20 07:33N 39°34' W 075°33'3 3.4
2016-Sep-20 06:33N 39°38' W 075°35'24 6.0
2016-Sep-20 02:33N 39°53' W 075°11'0 0.0
2016-Sep-19 23:33N 39°53' W 075°11'0 0.0
2016-Sep-19 19:33N 39°53' W 075°11'1 0.8
2016-Sep-19 18:33N 39°54' W 075°12'6 2.9
2016-Sep-19 16:33N 39°58' W 075°07'2 0.9
2016-Sep-19 14:33N 39°59' W 075°05'3 2.7
2016-Sep-19 13:33N 39°58' W 075°08'1 0.6
2016-Sep-19 12:33N 39°58' W 075°07'5 5.5
2016-Sep-19 11:33N 39°53' W 075°11'0 0.0
2016-Sep-19 09:33N 39°53' W 075°11'0 0.0
2016-Sep-19 07:33N 39°53' W 075°11'0 0.0
2016-Sep-19 06:33N 39°53' W 075°11'0 0.0
2016-Sep-19 03:33N 39°53' W 075°11'0 0.0
2016-Sep-19 02:33N 39°53' W 075°11'0 0.0
2016-Sep-19 00:33N 39°53' W 075°11'0 0.0
2016-Sep-18 19:33N 39°53' W 075°11'0 0.0
2016-Sep-18 15:33N 39°53' W 075°11'3 3.1
2016-Sep-18 14:33N 39°51' W 075°14'3 0.8
2016-Sep-18 10:33N 39°53' W 075°11'0 0.0
2016-Sep-18 09:33N 39°53' W 075°11'0 0.0
2016-Sep-18 02:33N 39°53' W 075°11'0 0.0
2016-Sep-18 01:33N 39°53' W 075°11'0 0.0
2016-Sep-18 00:33N 39°53' W 075°11'0 0.0
2016-Sep-17 22:33N 39°53' W 075°11'0 0.0
2016-Sep-17 21:33N 39°53' W 075°11'0 0.0
2016-Sep-17 20:33N 39°53' W 075°11'0 0.0
2016-Sep-17 19:16N 39°53' W 075°11'0 0.0
2016-Sep-17 13:33N 39°53' W 075°11'0 0.0
2016-Sep-17 12:33N 39°53' W 075°11'0 0.0
2016-Sep-17 10:33N 39°53' W 075°11'0 0.0
2016-Sep-17 09:33N 39°53' W 075°11'0 0.0
2016-Sep-17 08:33N 39°53' W 075°11'0 0.0
2016-Sep-17 07:34N 39°53' W 075°11'0 0.0
2016-Sep-17 05:33N 39°53' W 075°11'0 0.0
2016-Sep-17 04:33N 39°53' W 075°11'0 0.0
2016-Sep-17 00:33N 39°53' W 075°11'36 5.2
2016-Sep-16 17:33N 39°18' W 075°23'0 0.0
2016-Sep-16 12:34N 39°18' W 075°23'24 8.1
2016-Sep-16 09:33N 39°42' W 075°31'2010.0
2016-Sep-16 07:33N 39°53' W 075°09'1 0.2
2016-Sep-16 03:33N 39°53' W 075°10'2 1.6
2016-Sep-16 02:33N 39°54' W 075°12'7 3.4
2016-Sep-16 00:33N 39°51' W 075°20'0 0.1
2016-Sep-15 22:33N 39°51' W 075°20'0 0.0
2016-Sep-15 21:33N 39°51' W 075°20'0 0.0
2016-Sep-15 20:33N 39°51' W 075°20'6 3.2
2016-Sep-15 18:33N 39°52' W 075°12'  

Dump ship's entire track history